createdAt,value
2022-10-13T00:00:06.135Z,1002.98
2022-10-13T00:01:06.175Z,1003.02
2022-10-13T00:02:06.075Z,1002.97
2022-10-13T00:03:06.094Z,1003.00
2022-10-13T00:04:06.055Z,1002.99
2022-10-13T00:05:06.046Z,1003.05
2022-10-13T00:06:06.057Z,1003.00
2022-10-13T00:07:06.034Z,1003.03
2022-10-13T00:08:06.020Z,1003.03
2022-10-13T00:09:06.076Z,1003.03
2022-10-13T00:10:05.986Z,1003.08
2022-10-13T00:11:06.041Z,1003.06
2022-10-13T00:12:06.030Z,1003.13
2022-10-13T00:13:05.947Z,1003.14
2022-10-13T00:14:06.010Z,1003.16
2022-10-13T00:15:05.935Z,1003.15
2022-10-13T00:16:05.929Z,1003.20
2022-10-13T00:17:05.951Z,1003.15
2022-10-13T00:18:05.888Z,1003.13
2022-10-13T00:19:05.890Z,1003.15
2022-10-13T00:20:05.867Z,1003.15
2022-10-13T00:21:05.859Z,1003.13
2022-10-13T00:22:05.851Z,1003.16
2022-10-13T00:23:05.929Z,1003.12
2022-10-13T00:24:05.889Z,1003.14
2022-10-13T00:25:05.842Z,1003.15
2022-10-13T00:26:05.818Z,1003.09
2022-10-13T00:27:05.798Z,1003.07
2022-10-13T00:28:05.809Z,1003.07
2022-10-13T00:29:05.782Z,1003.09
2022-10-13T00:30:05.781Z,1003.15
2022-10-13T00:31:05.778Z,1003.02
2022-10-13T00:32:05.747Z,1003.10
2022-10-13T00:33:05.729Z,1003.06
2022-10-13T00:34:05.731Z,1003.15
2022-10-13T00:35:05.700Z,1003.13
2022-10-13T00:36:05.747Z,1003.09
2022-10-13T00:37:05.679Z,1003.08
2022-10-13T00:38:05.663Z,1003.17
2022-10-13T00:39:05.695Z,1003.16
2022-10-13T00:40:05.670Z,1003.11
2022-10-13T00:41:05.639Z,1003.11
2022-10-13T00:42:05.612Z,1003.09
2022-10-13T00:43:05.604Z,1003.02
2022-10-13T00:44:05.604Z,1003.11
2022-10-13T00:45:05.621Z,1003.05
2022-10-13T00:46:05.611Z,1003.08
2022-10-13T00:47:05.633Z,1003.10
2022-10-13T00:48:05.579Z,1003.09
2022-10-13T00:49:05.531Z,1003.14
2022-10-13T00:50:05.551Z,1003.09
2022-10-13T00:51:05.513Z,1003.12
2022-10-13T00:52:05.502Z,1003.10
2022-10-13T00:53:05.654Z,1003.11
2022-10-13T00:54:05.471Z,1003.15
2022-10-13T00:55:05.461Z,1003.17
2022-10-13T00:56:05.481Z,1003.16
2022-10-13T00:57:05.471Z,1003.13
2022-10-13T00:58:05.668Z,1003.10
2022-10-13T00:59:05.495Z,1003.11
2022-10-13T01:00:05.414Z,1003.14
2022-10-13T01:01:05.478Z,1003.11
2022-10-13T01:02:05.412Z,1003.06
2022-10-13T01:03:06.113Z,1003.08
2022-10-13T01:04:05.379Z,1003.02
2022-10-13T01:05:05.365Z,1002.98
2022-10-13T01:06:05.342Z,1003.01
2022-10-13T01:07:05.323Z,1003.05
2022-10-13T01:08:05.405Z,1003.04
2022-10-13T01:09:05.352Z,1003.00
2022-10-13T01:10:05.388Z,1002.97
2022-10-13T01:11:05.284Z,1003.01
2022-10-13T01:12:05.277Z,1003.03
2022-10-13T01:13:05.321Z,1002.96
2022-10-13T01:14:05.264Z,1003.04
2022-10-13T01:15:05.268Z,1002.97
2022-10-13T01:16:05.225Z,1002.99
2022-10-13T01:17:05.265Z,1002.96
2022-10-13T01:18:05.195Z,1002.92
2022-10-13T01:19:05.396Z,1002.88
2022-10-13T01:20:05.217Z,1002.87
2022-10-13T01:21:05.217Z,1002.93
2022-10-13T01:22:05.156Z,1002.91
2022-10-13T01:23:05.139Z,1002.90
2022-10-13T01:24:05.125Z,1002.92
2022-10-13T01:25:05.145Z,1002.95
2022-10-13T01:26:05.116Z,1002.99
2022-10-13T01:27:05.096Z,1002.98
2022-10-13T01:28:05.175Z,1002.93
2022-10-13T01:29:05.075Z,1002.94
2022-10-13T01:30:05.339Z,1002.91
2022-10-13T01:31:05.115Z,1003.00
2022-10-13T01:32:05.049Z,1002.98
2022-10-13T01:33:05.056Z,1002.99
2022-10-13T01:34:05.006Z,1002.96
2022-10-13T01:35:04.997Z,1003.00
2022-10-13T01:36:05.568Z,1002.97
2022-10-13T01:37:04.978Z,1003.01
2022-10-13T01:38:04.966Z,1002.95
2022-10-13T01:39:04.951Z,1002.95
2022-10-13T01:40:04.948Z,1002.98
2022-10-13T01:41:04.985Z,1002.92
2022-10-13T01:42:04.999Z,1002.99
2022-10-13T01:43:05.041Z,1003.00
2022-10-13T01:44:04.898Z,1002.97
2022-10-13T01:45:04.877Z,1002.96
2022-10-13T01:46:04.880Z,1002.96
2022-10-13T01:47:04.859Z,1002.92
2022-10-13T01:48:05.018Z,1002.92
2022-10-13T01:49:04.842Z,1002.88
2022-10-13T01:50:04.846Z,1002.93
2022-10-13T01:51:04.833Z,1002.82
2022-10-13T01:52:04.840Z,1002.87
2022-10-13T01:53:05.580Z,1002.82
2022-10-13T01:54:04.836Z,1002.76
2022-10-13T01:55:04.854Z,1002.82
2022-10-13T01:56:04.750Z,1002.77
2022-10-13T01:57:04.739Z,1002.72
2022-10-13T01:58:04.731Z,1002.79
2022-10-13T01:59:04.799Z,1002.73
2022-10-13T02:00:04.750Z,1002.75
2022-10-13T02:01:04.780Z,1002.84
2022-10-13T02:02:04.775Z,1002.69
2022-10-13T02:03:04.692Z,1002.71
2022-10-13T02:04:04.691Z,1002.75
2022-10-13T02:05:04.716Z,1002.75
2022-10-13T02:06:04.651Z,1002.75
2022-10-13T02:07:04.620Z,1002.70
2022-10-13T02:08:04.651Z,1002.72
2022-10-13T02:09:04.637Z,1002.67
2022-10-13T02:10:04.590Z,1002.70
2022-10-13T02:11:04.609Z,1002.66
2022-10-13T02:12:04.570Z,1002.69
2022-10-13T02:13:04.580Z,1002.74
2022-10-13T02:14:04.586Z,1002.71
2022-10-13T02:15:04.664Z,1002.66
2022-10-13T02:16:04.560Z,1002.68
2022-10-13T02:17:04.529Z,1002.65
2022-10-13T02:18:04.512Z,1002.65
2022-10-13T02:19:04.491Z,1002.68
2022-10-13T02:20:04.483Z,1002.63
2022-10-13T02:21:04.463Z,1002.61
2022-10-13T02:22:04.565Z,1002.60
2022-10-13T02:23:04.504Z,1002.59
2022-10-13T02:24:04.445Z,1002.62
2022-10-13T02:25:04.433Z,1002.59
2022-10-13T02:26:04.613Z,1002.60
2022-10-13T02:27:04.534Z,1002.56
2022-10-13T02:28:04.390Z,1002.56
2022-10-13T02:29:04.373Z,1002.55
2022-10-13T02:30:04.364Z,1002.52
2022-10-13T02:31:04.354Z,1002.53
2022-10-13T02:32:04.359Z,1002.52
2022-10-13T02:33:04.354Z,1002.49
2022-10-13T02:34:04.346Z,1002.52
2022-10-13T02:35:04.354Z,1002.52
2022-10-13T02:36:04.380Z,1002.49
2022-10-13T02:37:05.145Z,1002.51
2022-10-13T02:38:04.331Z,1002.54
2022-10-13T02:39:04.297Z,1002.44
2022-10-13T02:40:04.253Z,1002.47
2022-10-13T02:41:04.247Z,1002.46
2022-10-13T02:42:04.225Z,1002.48
2022-10-13T02:43:04.346Z,1002.47
2022-10-13T02:44:04.205Z,1002.50
2022-10-13T02:45:04.237Z,1002.51
2022-10-13T02:46:04.195Z,1002.40
2022-10-13T02:47:04.226Z,1002.41
2022-10-13T02:48:04.246Z,1002.42
2022-10-13T02:49:04.156Z,1002.41
2022-10-13T02:50:04.147Z,1002.40
2022-10-13T02:51:04.156Z,1002.31
2022-10-13T02:52:04.126Z,1002.42
2022-10-13T02:53:04.105Z,1002.29
2022-10-13T02:54:04.133Z,1002.30
2022-10-13T02:55:04.079Z,1002.24
2022-10-13T02:56:04.093Z,1002.28
2022-10-13T02:57:04.054Z,1002.30
2022-10-13T02:58:04.075Z,1002.26
2022-10-13T02:59:04.136Z,1002.26
2022-10-13T03:00:04.195Z,1002.25
2022-10-13T03:01:04.056Z,1002.24
2022-10-13T03:02:04.020Z,1002.23
2022-10-13T03:03:04.000Z,1002.21
2022-10-13T03:04:03.981Z,1002.27
2022-10-13T03:05:03.958Z,1002.26
2022-10-13T03:06:03.967Z,1002.28
2022-10-13T03:07:03.991Z,1002.22
2022-10-13T03:08:03.938Z,1002.29
2022-10-13T03:09:03.918Z,1002.32
2022-10-13T03:10:03.972Z,1002.29
2022-10-13T03:11:03.920Z,1002.25
2022-10-13T03:12:03.900Z,1002.27
2022-10-13T03:13:03.901Z,1002.31
2022-10-13T03:14:03.869Z,1002.25
2022-10-13T03:15:03.851Z,1002.28
2022-10-13T03:16:03.850Z,1002.23
2022-10-13T03:17:03.834Z,1002.32
2022-10-13T03:18:04.081Z,1002.25
2022-10-13T03:19:03.800Z,1002.23
2022-10-13T03:20:03.826Z,1002.27
2022-10-13T03:21:03.831Z,1002.22
2022-10-13T03:22:03.804Z,1002.24
2022-10-13T03:23:03.754Z,1002.25
2022-10-13T03:24:03.870Z,1002.20
2022-10-13T03:25:03.747Z,1002.26
2022-10-13T03:26:03.731Z,1002.31
2022-10-13T03:27:03.731Z,1002.20
2022-10-13T03:28:03.711Z,1002.24
2022-10-13T03:29:03.727Z,1002.26
2022-10-13T03:30:03.693Z,1002.21
2022-10-13T03:31:03.754Z,1002.19
2022-10-13T03:32:03.697Z,1002.25
2022-10-13T03:33:03.642Z,1002.28
2022-10-13T03:34:03.632Z,1002.27
2022-10-13T03:35:03.656Z,1002.29
2022-10-13T03:36:03.611Z,1002.25
2022-10-13T03:37:03.683Z,1002.34
2022-10-13T03:38:03.602Z,1002.25
2022-10-13T03:39:03.585Z,1002.23
2022-10-13T03:40:03.565Z,1002.22
2022-10-13T03:41:03.582Z,1002.24
2022-10-13T03:42:03.630Z,1002.28
2022-10-13T03:43:03.624Z,1002.28
2022-10-13T03:44:03.524Z,1002.28
2022-10-13T03:45:03.503Z,1002.33
2022-10-13T03:46:03.494Z,1002.28
2022-10-13T03:47:03.544Z,1002.27
2022-10-13T03:48:03.472Z,1002.32
2022-10-13T03:49:03.463Z,1002.31
2022-10-13T03:50:03.454Z,1002.29
2022-10-13T03:51:03.468Z,1002.28
2022-10-13T03:52:03.447Z,1002.30
2022-10-13T03:53:03.528Z,1002.29
2022-10-13T03:54:03.509Z,1002.31
2022-10-13T03:55:03.397Z,1002.29
2022-10-13T03:56:03.386Z,1002.24
2022-10-13T03:57:03.413Z,1002.23
2022-10-13T03:58:03.368Z,1002.23
2022-10-13T03:59:03.356Z,1002.27
2022-10-13T04:00:03.365Z,1002.31
2022-10-13T04:01:03.325Z,1002.30
2022-10-13T04:02:03.383Z,1002.27
2022-10-13T04:03:03.325Z,1002.35
2022-10-13T04:04:03.297Z,1002.36
2022-10-13T04:05:03.288Z,1002.37
2022-10-13T04:06:03.256Z,1002.34
2022-10-13T04:07:03.256Z,1002.38
2022-10-13T04:08:03.250Z,1002.36
2022-10-13T04:09:03.393Z,1002.38
2022-10-13T04:10:03.333Z,1002.38
2022-10-13T04:11:03.228Z,1002.40
2022-10-13T04:12:03.251Z,1002.36
2022-10-13T04:13:03.253Z,1002.38
2022-10-13T04:14:03.300Z,1002.34
2022-10-13T04:15:03.413Z,1002.36
2022-10-13T04:16:03.313Z,1002.29
2022-10-13T04:17:03.147Z,1002.32
2022-10-13T04:18:03.128Z,1002.32
2022-10-13T04:19:03.122Z,1002.37
2022-10-13T04:20:03.098Z,1002.39
2022-10-13T04:21:03.119Z,1002.36
2022-10-13T04:22:03.081Z,1002.36
2022-10-13T04:23:03.081Z,1002.40
2022-10-13T04:24:03.127Z,1002.42
2022-10-13T04:25:03.159Z,1002.43
2022-10-13T04:26:03.249Z,1002.44
2022-10-13T04:27:03.029Z,1002.44
2022-10-13T04:28:03.011Z,1002.43
2022-10-13T04:29:03.024Z,1002.39
2022-10-13T04:30:03.020Z,1002.46
2022-10-13T04:31:03.011Z,1002.36
2022-10-13T04:32:02.989Z,1002.32
2022-10-13T04:33:02.960Z,1002.36
2022-10-13T04:34:02.961Z,1002.43
2022-10-13T04:35:03.122Z,1002.44
2022-10-13T04:36:03.020Z,1002.39
2022-10-13T04:37:02.948Z,1002.42
2022-10-13T04:38:02.951Z,1002.38
2022-10-13T04:39:02.901Z,1002.42
2022-10-13T04:40:02.943Z,1002.41
2022-10-13T04:41:02.912Z,1002.38
2022-10-13T04:42:02.871Z,1002.35
2022-10-13T04:43:02.859Z,1002.32
2022-10-13T04:44:02.951Z,1002.33
2022-10-13T04:45:02.835Z,1002.39
2022-10-13T04:46:02.835Z,1002.31
2022-10-13T04:47:02.854Z,1002.34
2022-10-13T04:48:02.831Z,1002.29
2022-10-13T04:49:02.778Z,1002.30
2022-10-13T04:50:02.794Z,1002.33
2022-10-13T04:51:02.744Z,1002.26
2022-10-13T04:52:02.843Z,1002.28
2022-10-13T04:53:02.746Z,1002.24
2022-10-13T04:54:02.712Z,1002.24
2022-10-13T04:55:02.794Z,1002.18
2022-10-13T04:56:02.691Z,1002.24
2022-10-13T04:57:02.770Z,1002.25
2022-10-13T04:58:02.752Z,1002.27
2022-10-13T04:59:02.676Z,1002.30
2022-10-13T05:00:02.674Z,1002.26
2022-10-13T05:01:02.910Z,1002.24
2022-10-13T05:02:02.617Z,1002.25
2022-10-13T05:03:02.616Z,1002.24
2022-10-13T05:04:02.626Z,1002.25
2022-10-13T05:05:02.596Z,1002.19
2022-10-13T05:06:02.584Z,1002.27
2022-10-13T05:07:17.614Z,1002.21
2022-10-13T05:08:03.554Z,1002.20
2022-10-13T05:09:02.544Z,1002.20
2022-10-13T05:10:02.539Z,1002.21
2022-10-13T05:11:02.513Z,1002.22
2022-10-13T05:12:02.496Z,1002.19
2022-10-13T05:13:02.526Z,1002.16
2022-10-13T05:14:02.475Z,1002.24
2022-10-13T05:15:02.486Z,1002.15
2022-10-13T05:16:02.458Z,1002.13
2022-10-13T05:17:02.465Z,1002.17
2022-10-13T05:18:02.572Z,1002.09
2022-10-13T05:19:02.456Z,1002.11
2022-10-13T05:20:02.407Z,1002.10
2022-10-13T05:21:02.416Z,1002.08
2022-10-13T05:22:02.426Z,1002.00
2022-10-13T05:23:02.380Z,1002.07
2022-10-13T05:24:02.387Z,1002.04
2022-10-13T05:25:02.358Z,1002.01
2022-10-13T05:26:02.339Z,1002.02
2022-10-13T05:27:02.335Z,1002.01
2022-10-13T05:28:03.052Z,1001.99
2022-10-13T05:29:02.348Z,1002.03
2022-10-13T05:30:02.328Z,1002.02
2022-10-13T05:31:02.291Z,1002.04
2022-10-13T05:32:02.289Z,1002.01
2022-10-13T05:33:02.278Z,1001.98
2022-10-13T05:34:02.290Z,1001.97
2022-10-13T05:35:02.289Z,1001.95
2022-10-13T05:36:02.228Z,1001.96
2022-10-13T05:37:02.209Z,1001.94
2022-10-13T05:38:02.209Z,1001.96
2022-10-13T05:39:02.279Z,1001.97
2022-10-13T05:40:02.263Z,1001.91
2022-10-13T05:41:02.290Z,1001.93
2022-10-13T05:42:02.150Z,1001.95
2022-10-13T05:43:02.139Z,1001.89
2022-10-13T05:44:02.134Z,1001.87
2022-10-13T05:45:02.127Z,1001.89
2022-10-13T05:46:02.101Z,1001.90
2022-10-13T05:47:07.210Z,1001.88
2022-10-13T05:48:03.094Z,1001.88
2022-10-13T05:49:02.082Z,1001.87
2022-10-13T05:50:02.071Z,1001.87
2022-10-13T05:51:02.070Z,1001.86
2022-10-13T05:52:02.035Z,1001.87
2022-10-13T05:53:02.059Z,1001.85
2022-10-13T05:54:02.011Z,1001.90
2022-10-13T05:55:02.004Z,1001.89
2022-10-13T05:56:01.996Z,1001.85
2022-10-13T05:57:01.982Z,1001.82
2022-10-13T05:58:02.075Z,1001.85
2022-10-13T05:59:01.971Z,1001.90
2022-10-13T06:00:01.959Z,1001.88
2022-10-13T06:01:01.964Z,1001.79
2022-10-13T06:02:01.989Z,1001.78
2022-10-13T06:03:01.914Z,1001.85
2022-10-13T06:04:01.931Z,1001.90
2022-10-13T06:05:01.886Z,1001.89
2022-10-13T06:06:01.933Z,1001.92
2022-10-13T06:07:01.884Z,1001.92
2022-10-13T06:08:01.863Z,1001.91
2022-10-13T06:09:01.845Z,1001.95
2022-10-13T06:10:01.871Z,1001.95
2022-10-13T06:11:01.825Z,1001.95
2022-10-13T06:12:01.813Z,1001.89
2022-10-13T06:13:01.794Z,1001.95
2022-10-13T06:14:01.846Z,1001.94
2022-10-13T06:15:01.793Z,1002.04
2022-10-13T06:16:02.036Z,1002.01
2022-10-13T06:17:01.873Z,1002.05
2022-10-13T06:18:01.733Z,1002.03
2022-10-13T06:19:01.724Z,1001.97
2022-10-13T06:20:01.727Z,1001.95
2022-10-13T06:21:01.704Z,1002.05
2022-10-13T06:22:03.753Z,1002.02
2022-10-13T06:23:01.694Z,1001.99
2022-10-13T06:24:01.674Z,1002.00
2022-10-13T06:25:01.688Z,1001.95
2022-10-13T06:26:01.704Z,1002.01
2022-10-13T06:27:01.663Z,1001.97
2022-10-13T06:28:01.626Z,1001.99
2022-10-13T06:29:01.637Z,1001.95
2022-10-13T06:30:01.608Z,1001.81
2022-10-13T06:31:01.599Z,1001.82
2022-10-13T06:32:01.575Z,1001.80
2022-10-13T06:33:01.595Z,1001.77
2022-10-13T06:34:01.734Z,1001.81
2022-10-13T06:35:01.590Z,1001.86
2022-10-13T06:36:01.541Z,1001.83
2022-10-13T06:37:01.523Z,1001.84
2022-10-13T06:38:01.507Z,1001.88
2022-10-13T06:39:01.520Z,1001.79
2022-10-13T06:40:01.488Z,1001.86
2022-10-13T06:41:01.478Z,1001.82
2022-10-13T06:42:01.479Z,1001.89
2022-10-13T06:43:01.545Z,1001.84
2022-10-13T06:44:01.467Z,1001.86
2022-10-13T06:45:01.428Z,1001.88
2022-10-13T06:46:01.519Z,1001.90
2022-10-13T06:47:01.421Z,1001.85
2022-10-13T06:48:01.402Z,1001.94
2022-10-13T06:49:01.385Z,1001.92
2022-10-13T06:50:01.419Z,1001.91
2022-10-13T06:51:01.360Z,1001.89
2022-10-13T06:52:01.350Z,1001.92
2022-10-13T06:53:01.359Z,1001.97
2022-10-13T06:54:01.428Z,1001.90
2022-10-13T06:55:01.309Z,1001.93
2022-10-13T06:56:01.343Z,1001.90
2022-10-13T06:57:01.311Z,1001.92
2022-10-13T06:58:01.277Z,1001.97
2022-10-13T06:59:01.270Z,1002.00
2022-10-13T07:00:01.270Z,1001.94
2022-10-13T07:01:01.302Z,1001.95
2022-10-13T07:02:01.273Z,1001.96
2022-10-13T07:03:01.227Z,1001.92
2022-10-13T07:04:01.210Z,1001.94
2022-10-13T07:05:01.211Z,1001.92
2022-10-13T07:06:01.200Z,1001.99
2022-10-13T07:07:01.401Z,1001.93
2022-10-13T07:08:01.171Z,1001.98
2022-10-13T07:09:01.164Z,1002.02
2022-10-13T07:10:01.283Z,1002.04
2022-10-13T07:11:01.163Z,1002.01
2022-10-13T07:12:01.147Z,1001.94
2022-10-13T07:13:01.134Z,1001.99
2022-10-13T07:15:01.094Z,1001.92
2022-10-13T07:16:01.131Z,1001.93
2022-10-13T07:17:01.064Z,1001.91
2022-10-13T07:18:01.102Z,1001.90
2022-10-13T07:19:01.056Z,1001.87
2022-10-13T07:20:03.750Z,1001.86
2022-10-13T07:21:02.042Z,1001.75
2022-10-13T07:22:01.008Z,1001.87
2022-10-13T07:23:00.995Z,1001.92
2022-10-13T07:24:01.024Z,1001.90
2022-10-13T07:25:01.004Z,1001.90
2022-10-13T07:26:00.964Z,1001.88
2022-10-13T07:27:05.235Z,1001.93
2022-10-13T07:28:01.945Z,1001.96
2022-10-13T07:29:00.983Z,1001.97
2022-10-13T07:30:00.937Z,1001.92
2022-10-13T07:31:01.028Z,1001.89
2022-10-13T07:32:00.894Z,1001.89
2022-10-13T07:33:00.885Z,1001.89
2022-10-13T07:34:00.886Z,1001.91
2022-10-13T07:35:00.854Z,1001.87
2022-10-13T07:36:01.008Z,1001.88
2022-10-13T07:37:00.832Z,1001.80
2022-10-13T07:38:00.815Z,1001.78
2022-10-13T07:39:00.880Z,1001.86
2022-10-13T07:40:00.872Z,1001.74
2022-10-13T07:41:00.787Z,1001.78
2022-10-13T07:42:00.799Z,1001.77
2022-10-13T07:43:00.793Z,1001.82
2022-10-13T07:44:00.746Z,1001.76
2022-10-13T07:45:00.741Z,1001.80
2022-10-13T07:46:00.717Z,1001.71
2022-10-13T07:47:00.719Z,1001.75
2022-10-13T07:48:00.736Z,1001.72
2022-10-13T07:49:00.702Z,1001.73
2022-10-13T07:50:00.689Z,1001.67
2022-10-13T07:51:00.667Z,1001.68
2022-10-13T07:52:00.647Z,1001.67
2022-10-13T07:53:00.680Z,1001.67
2022-10-13T07:54:00.627Z,1001.61
2022-10-13T07:55:00.617Z,1001.74
2022-10-13T07:56:00.610Z,1001.68
2022-10-13T07:57:00.628Z,1001.68
2022-10-13T07:58:00.580Z,1001.71
2022-10-13T07:59:00.604Z,1001.74
2022-10-13T08:00:00.578Z,1001.70
2022-10-13T08:01:00.549Z,1001.73
2022-10-13T08:02:00.656Z,1001.76
2022-10-13T08:03:00.530Z,1001.76
2022-10-13T08:04:00.523Z,1001.72
2022-10-13T08:05:00.629Z,1001.76
2022-10-13T08:06:00.489Z,1001.77
2022-10-13T08:07:00.512Z,1001.74
2022-10-13T08:08:00.524Z,1001.75
2022-10-13T08:09:00.481Z,1001.76
2022-10-13T08:10:00.510Z,1001.80
2022-10-13T08:11:00.450Z,1001.87
2022-10-13T08:12:00.803Z,1001.91
2022-10-13T08:13:00.412Z,1001.84
2022-10-13T08:14:00.403Z,1001.83
2022-10-13T08:15:03.414Z,1001.77
2022-10-13T08:16:01.566Z,1001.85
2022-10-13T08:17:00.408Z,1001.87
2022-10-13T08:18:00.352Z,1001.89
2022-10-13T08:19:00.341Z,1001.85
2022-10-13T08:20:00.325Z,1001.87
2022-10-13T08:21:23.903Z,1001.87
2022-10-13T08:22:01.334Z,1001.81
2022-10-13T08:23:00.292Z,1001.85
2022-10-13T08:24:00.302Z,1001.81
2022-10-13T08:25:00.291Z,1001.76
2022-10-13T08:26:00.262Z,1001.80
2022-10-13T08:27:00.253Z,1001.80
2022-10-13T08:28:00.581Z,1001.82
2022-10-13T08:29:20.901Z,1001.75
2022-10-13T08:30:01.246Z,1001.81
2022-10-13T08:31:00.376Z,1001.74
2022-10-13T08:32:00.195Z,1001.72
2022-10-13T08:33:00.194Z,1001.72
2022-10-13T08:34:00.310Z,1001.69
2022-10-13T08:35:00.233Z,1001.65
2022-10-13T08:36:00.145Z,1001.62
2022-10-13T08:37:00.133Z,1001.70
2022-10-13T08:38:00.136Z,1001.72
2022-10-13T08:39:00.110Z,1001.77
2022-10-13T08:40:00.172Z,1001.73
2022-10-13T08:41:00.086Z,1001.81
2022-10-13T08:42:00.126Z,1001.74
2022-10-13T08:43:00.685Z,1001.75
2022-10-13T08:44:39.494Z,1001.75
2022-10-13T08:45:39.798Z,1001.67
2022-10-13T08:46:01.025Z,1001.64
2022-10-13T08:47:00.019Z,1001.62
2022-10-13T08:48:00.007Z,1001.52
2022-10-13T08:49:00.001Z,1001.53
2022-10-13T08:50:00.840Z,1001.49
2022-10-13T08:51:00.003Z,1001.48
2022-10-13T08:51:59.976Z,1001.48
2022-10-13T08:52:59.966Z,1001.45
2022-10-13T08:53:59.958Z,1001.54
2022-10-13T08:54:59.930Z,1001.58
2022-10-13T08:55:59.938Z,1001.56
2022-10-13T08:57:59.900Z,1001.62
2022-10-13T08:58:59.900Z,1001.59
2022-10-13T08:59:59.891Z,1001.61
2022-10-13T09:00:59.860Z,1001.54
2022-10-13T09:01:59.929Z,1001.63
2022-10-13T09:02:59.832Z,1001.63
2022-10-13T09:03:59.821Z,1001.61
2022-10-13T09:04:59.812Z,1001.60
2022-10-13T09:05:59.819Z,1001.69
2022-10-13T09:07:00.749Z,1001.61
2022-10-13T09:07:59.821Z,1001.62
2022-10-13T09:08:59.772Z,1001.66
2022-10-13T09:09:59.768Z,1001.63
2022-10-13T09:10:59.806Z,1001.61
2022-10-13T09:11:59.742Z,1001.64
2022-10-13T09:12:59.727Z,1001.62
2022-10-13T09:13:59.731Z,1001.61
2022-10-13T09:14:59.693Z,1001.63
2022-10-13T09:15:59.716Z,1001.60
2022-10-13T09:16:59.670Z,1001.65
2022-10-13T09:17:59.661Z,1001.69
2022-10-13T09:18:59.651Z,1001.68
2022-10-13T09:19:59.686Z,1001.62
2022-10-13T09:20:59.625Z,1001.73
2022-10-13T09:21:59.614Z,1001.68
2022-10-13T09:22:59.615Z,1001.73
2022-10-13T09:23:59.596Z,1001.70
2022-10-13T09:24:59.573Z,1001.71
2022-10-13T09:25:59.621Z,1001.66
2022-10-13T09:26:59.553Z,1001.60
2022-10-13T09:27:59.544Z,1001.59
2022-10-13T09:28:59.593Z,1001.58
2022-10-13T09:29:59.523Z,1001.60
2022-10-13T09:30:59.535Z,1001.56
2022-10-13T09:31:59.495Z,1001.62
2022-10-13T09:32:59.485Z,1001.61
2022-10-13T09:33:59.637Z,1001.60
2022-10-13T09:34:59.461Z,1001.66
2022-10-13T09:35:59.456Z,1001.62
2022-10-13T09:36:59.454Z,1001.61
2022-10-13T09:37:59.433Z,1001.58
2022-10-13T09:38:59.415Z,1001.55
2022-10-13T09:39:59.407Z,1001.52
2022-10-13T09:40:59.399Z,1001.55
2022-10-13T09:41:59.382Z,1001.52
2022-10-13T09:42:59.419Z,1001.44
2022-10-13T09:43:59.368Z,1001.53
2022-10-13T09:44:59.335Z,1001.56
2022-10-13T09:45:59.353Z,1001.55
2022-10-13T09:46:59.326Z,1001.58
2022-10-13T09:47:59.612Z,1001.54
2022-10-13T09:48:59.324Z,1001.50
2022-10-13T09:50:01.971Z,1001.48
2022-10-13T09:51:00.276Z,1001.50
2022-10-13T09:51:59.267Z,1001.46
2022-10-13T09:52:59.248Z,1001.50
2022-10-13T09:53:59.300Z,1001.53
2022-10-13T09:54:59.217Z,1001.51
2022-10-13T09:55:59.218Z,1001.49
2022-10-13T09:56:59.208Z,1001.54
2022-10-13T09:57:59.188Z,1001.52
2022-10-13T09:58:59.290Z,1001.56
2022-10-13T09:59:59.291Z,1001.55
2022-10-13T10:00:59.179Z,1001.52
2022-10-13T10:01:59.147Z,1001.53
2022-10-13T10:02:59.146Z,1001.48
2022-10-13T10:03:59.183Z,1001.50
2022-10-13T10:04:59.173Z,1001.45
2022-10-13T10:05:59.135Z,1001.53
2022-10-13T10:06:59.081Z,1001.49
2022-10-13T10:07:59.084Z,1001.47
2022-10-13T10:09:03.237Z,1001.50
2022-10-13T10:10:00.273Z,1001.54
2022-10-13T10:10:59.041Z,1001.55
2022-10-13T10:11:59.030Z,1001.49
2022-10-13T10:12:59.020Z,1001.49
2022-10-13T10:13:59.004Z,1001.44
2022-10-13T10:14:58.991Z,1001.45
2022-10-13T10:15:58.999Z,1001.45
2022-10-13T10:16:58.976Z,1001.49
2022-10-13T10:17:58.981Z,1001.41
2022-10-13T10:18:59.154Z,1001.43
2022-10-13T10:19:58.943Z,1001.45
2022-10-13T10:20:58.930Z,1001.49
2022-10-13T10:21:58.942Z,1001.46
2022-10-13T10:22:58.901Z,1001.45
2022-10-13T10:23:58.895Z,1001.44
2022-10-13T10:24:58.991Z,1001.46
2022-10-13T10:25:58.854Z,1001.46
2022-10-13T10:26:58.850Z,1001.46
2022-10-13T10:27:58.960Z,1001.43
2022-10-13T10:28:58.893Z,1001.42
2022-10-13T10:29:58.814Z,1001.44
2022-10-13T10:30:58.805Z,1001.45
2022-10-13T10:31:58.793Z,1001.34
2022-10-13T10:32:58.818Z,1001.29
2022-10-13T10:33:58.785Z,1001.25
2022-10-13T10:34:58.768Z,1001.20
2022-10-13T10:35:58.766Z,1001.19
2022-10-13T10:36:58.744Z,1001.25
2022-10-13T10:37:58.717Z,1001.19
2022-10-13T10:38:58.706Z,1001.18
2022-10-13T10:39:58.736Z,1001.05
2022-10-13T10:40:58.687Z,1001.00
2022-10-13T10:41:58.774Z,1000.91
2022-10-13T10:42:58.675Z,1000.80
2022-10-13T10:43:58.657Z,1000.83
2022-10-13T10:44:58.637Z,1000.80
2022-10-13T10:45:58.686Z,1000.87
2022-10-13T10:46:58.627Z,1000.86
2022-10-13T10:47:58.611Z,1000.84
2022-10-13T10:48:58.604Z,1000.86
2022-10-13T10:49:58.577Z,1000.84
2022-10-13T10:50:58.608Z,1000.83
2022-10-13T10:51:58.585Z,1000.87
2022-10-13T10:52:58.570Z,1000.84
2022-10-13T10:53:58.534Z,1000.86
2022-10-13T10:54:58.564Z,1000.80
2022-10-13T10:55:58.532Z,1000.81
2022-10-13T10:56:58.502Z,1000.82
2022-10-13T10:57:58.594Z,1000.75
2022-10-13T10:58:58.496Z,1000.73
2022-10-13T10:59:58.520Z,1000.63
2022-10-13T11:00:58.514Z,1000.59
2022-10-13T11:01:58.470Z,1000.63
2022-10-13T11:02:58.445Z,1000.59
2022-10-13T11:03:58.438Z,1000.69
2022-10-13T11:05:02.103Z,1000.72
2022-10-13T11:05:59.400Z,1000.70
2022-10-13T11:06:58.400Z,1000.65
2022-10-13T11:07:58.370Z,1000.63
2022-10-13T11:08:58.380Z,1000.56
2022-10-13T11:09:58.350Z,1000.48
2022-10-13T11:10:58.332Z,1000.49
2022-10-13T11:11:58.332Z,1000.47
2022-10-13T11:12:58.397Z,1000.48
2022-10-13T11:13:58.307Z,1000.56
2022-10-13T11:14:58.304Z,1000.53
2022-10-13T11:15:58.282Z,1000.55
2022-10-13T11:16:58.288Z,1000.64
2022-10-13T11:17:58.254Z,1000.61
2022-10-13T11:18:58.243Z,1000.70
2022-10-13T11:19:58.267Z,1000.69
2022-10-13T11:20:58.218Z,1000.72
2022-10-13T11:21:58.213Z,1000.61
2022-10-13T11:22:58.204Z,1000.57
2022-10-13T11:24:01.884Z,1000.59
2022-10-13T11:24:58.198Z,1000.55
2022-10-13T11:25:58.185Z,1000.54
2022-10-13T11:26:58.158Z,1000.54
2022-10-13T11:27:58.137Z,1000.47
2022-10-13T11:28:58.127Z,1000.51
2022-10-13T11:29:58.128Z,1000.54
2022-10-13T11:30:58.151Z,1000.46
2022-10-13T11:31:58.107Z,1000.47
2022-10-13T11:32:58.080Z,1000.48
2022-10-13T11:33:58.078Z,1000.41
2022-10-13T11:34:58.066Z,1000.43
2022-10-13T11:35:58.056Z,1000.38
2022-10-13T11:36:58.049Z,1000.37
2022-10-13T11:38:06.657Z,1000.33
2022-10-13T11:38:59.011Z,1000.35
2022-10-13T11:39:57.998Z,1000.33
2022-10-13T11:40:57.978Z,1000.31
2022-10-13T11:41:57.970Z,1000.29
2022-10-13T11:42:59.273Z,1000.25
2022-10-13T11:43:57.949Z,1000.29
2022-10-13T11:44:57.930Z,1000.29
2022-10-13T11:45:57.972Z,1000.27
2022-10-13T11:46:57.913Z,1000.22
2022-10-13T11:47:57.958Z,1000.19
2022-10-13T11:48:57.884Z,1000.19
2022-10-13T11:49:57.883Z,1000.12
2022-10-13T11:50:57.862Z,1000.17
2022-10-13T11:51:57.860Z,1000.14
2022-10-13T11:52:57.849Z,1000.12
2022-10-13T11:53:57.859Z,1000.14
2022-10-13T11:54:57.811Z,1000.18
2022-10-13T11:55:57.802Z,1000.10
2022-10-13T11:56:57.804Z,1000.10
2022-10-13T11:57:57.793Z,1000.12
2022-10-13T11:58:57.823Z,1000.14
2022-10-13T11:59:57.774Z,1000.05
2022-10-13T12:00:57.743Z,1000.17
2022-10-13T12:01:57.733Z,1000.06
2022-10-13T12:02:57.813Z,1000.11
2022-10-13T12:03:57.715Z,999.99
2022-10-13T12:04:57.735Z,1000.05
2022-10-13T12:05:57.685Z,1000.02
2022-10-13T12:06:57.702Z,999.97